< < Back
Terminal Aerodrome Forecast


Current Version              Previous Versions:   1  2  3  4  5  6  7  8  9  

Terminal Aerodrome Forecast

543
FTUS42 KGSP 301300 AAA
TAFHKY
TAF AMD
KHKY 301312Z 3013/0112 31005KT 3SM BR OVC003
      TEMPO 3013/3014 1/2SM FG OVC002
     FM301400 VRB03KT P6SM FEW050
     FM010500 00000KT 4SM BR FEW250
     FM010800 33003KT 3SM BR FEW250=

Latest METAR

678
SAUS70 KWBC 301900 RRG
MTRHKY
METAR KHKY 301853Z AUTO 00000KT 10SM CLR 26/15 A2990 RMK AO2 SLP103
T02560150


USA.gov is the U.S. government's official web portal to all federal, state and local government web resources and services.